Time;durP1;ratioP1;P1;durP2;ratioP2;P2;SDS_P1;SDS_P2;PMS_P1;PMS_P2;Temp;Humidity;BMP_temperature;BMP_pressure;BME280_temperature;BME280_humidity;BME280_pressure;Samples;Min_cycle;Max_cycle;Signal;HPM_P1;HPM_P2
2021/12/05 00:19:45;;;;;;;4.20;1.60;;;5.90;99.90;;;5.75;85.79;99419.63;5205060;28;20056;-71
2021/12/05 00:22:27;;;;;;;7.15;2.00;;;5.90;99.90;;;5.75;86.25;99417.91;5206015;28;20068;-71
2021/12/05 00:25:04;;;;;;;5.72;1.50;;;5.90;99.90;;;5.76;86.49;99416.19;5205496;28;20061;-70
2021/12/05 00:27:44;;;;;;;5.95;1.70;;;5.90;99.90;;;5.75;86.70;99417.03;5205661;28;20107;-71
2021/12/05 00:30:45;;;;;;;8.70;1.73;;;5.90;99.90;;;5.78;86.35;99422.28;5205826;28;20115;-71
2021/12/05 00:33:36;;;;;;;4.90;2.08;;;5.90;99.90;;;5.76;86.42;99414.50;5196170;28;20137;-70
2021/12/05 00:39:24;;;;;;;5.53;1.70;;;5.90;99.90;;;5.78;86.18;99417.13;5184303;28;20045;-70
2021/12/05 00:47:56;;;;;;;7.72;1.45;;;5.90;99.90;;;5.73;85.88;99424.72;5185941;28;20502;-71
2021/12/05 00:56:31;;;;;;;5.00;1.35;;;5.90;99.90;;;5.73;86.37;99428.19;5161891;28;20046;-71
2021/12/05 01:05:12;;;;;;;4.32;1.38;;;5.90;99.90;;;5.71;86.57;99431.56;5205661;28;20065;-69
2021/12/05 01:08:03;;;;;;;3.05;1.30;;;5.90;99.90;;;5.70;86.48;99437.56;5205745;28;20077;-71
2021/12/05 01:10:57;;;;;;;5.28;1.15;;;5.90;99.90;;;5.65;85.78;99440.00;5206208;28;20045;-70
2021/12/05 01:13:36;;;;;;;2.83;1.40;;;5.90;99.90;;;5.63;86.09;99449.41;5186323;28;20053;-69
2021/12/05 01:16:13;;;;;;;2.60;1.25;;;5.80;99.90;;;5.63;86.16;99439.06;5184897;28;20050;-70
2021/12/05 01:18:46;;;;;;;3.30;1.50;;;5.80;99.90;;;5.60;85.99;99449.28;5185656;28;20450;-71
2021/12/05 01:21:23;;;;;;;6.00;1.35;;;5.80;99.90;;;5.56;85.83;99447.44;5185115;28;20052;-72
2021/12/05 01:24:06;;;;;;;4.32;1.60;;;5.80;99.90;;;5.51;85.83;99442.94;5184877;28;20169;-71
2021/12/05 01:26:46;;;;;;;3.72;1.63;;;5.80;99.90;;;5.46;86.53;99450.53;5185282;28;20049;-71
2021/12/05 01:29:29;;;;;;;6.72;1.70;;;5.80;99.90;;;5.43;86.48;99456.50;5185173;28;20050;-71
2021/12/05 01:32:12;;;;;;;4.93;1.40;;;5.70;99.90;;;5.41;86.92;99454.66;5186198;28;20050;-71
2021/12/05 01:34:56;;;;;;;5.38;1.63;;;5.70;99.90;;;5.49;86.59;99454.97;5184725;28;20131;-70
2021/12/05 01:37:39;;;;;;;4.28;1.45;;;5.70;99.90;;;5.57;86.48;99449.22;5184859;28;20085;-71
2021/12/05 01:40:43;;;;;;;3.88;1.30;;;5.70;99.90;;;5.60;86.43;99448.41;5185091;28;20172;-71
2021/12/05 01:52:16;;;;;;;6.80;1.00;;;5.80;99.90;;;5.60;86.49;99453.59;5183138;28;20568;-70
2021/12/05 01:57:50;;;;;;;4.40;1.35;;;5.80;99.90;;;5.61;85.90;99451.06;5182643;28;20056;-71
2021/12/05 02:15:23;;;;;;;5.20;1.80;;;5.80;99.90;;;5.54;86.26;99449.13;5163543;28;20116;-70
2021/12/05 02:29:43;;;;;;;4.40;1.20;;;5.70;99.90;;;5.55;86.76;99461.22;5184953;28;20065;-70
2021/12/05 02:35:22;;;;;;;3.47;1.23;;;5.70;99.90;;;5.57;87.10;99462.13;5182448;28;20418;-70
2021/12/05 02:41:06;;;;;;;3.30;1.23;;;5.80;99.90;;;5.61;86.99;99455.38;5184351;28;20131;-71
2021/12/05 02:43:44;;;;;;;5.88;1.20;;;5.80;99.90;;;5.61;87.30;99463.13;5184291;28;20077;-71
2021/12/05 02:46:21;;;;;;;7.85;1.42;;;5.80;99.90;;;5.64;86.82;99456.34;5185038;28;20226;-70
2021/12/05 02:48:56;;;;;;;4.68;1.25;;;5.80;99.90;;;5.69;87.10;99456.50;5184701;28;20077;-70
2021/12/05 02:51:29;;;;;;;;;;;5.80;99.90;;;5.67;87.34;99445.19;5184972;28;20065;-70
2021/12/05 02:54:06;;;;;;;4.15;1.08;;;5.80;99.90;;;5.62;87.17;99447.66;5183600;28;20397;-71
2021/12/05 02:56:42;;;;;;;4.50;1.13;;;5.80;99.90;;;5.58;86.98;99440.63;5184277;28;20046;-70
2021/12/05 02:59:24;;;;;;;2.70;1.30;;;5.80;99.90;;;5.54;87.30;99441.38;5184167;28;20561;-69
2021/12/05 03:02:03;;;;;;;4.70;1.08;;;5.80;99.90;;;5.55;86.74;99442.25;5187080;28;20046;-70
2021/12/05 03:04:37;;;;;;;1.70;0.80;;;5.70;99.90;;;5.59;85.70;99447.53;5187438;28;20112;-70
2021/12/05 03:07:10;;;;;;;6.40;1.35;;;5.80;99.90;;;5.53;85.33;99439.56;5189073;28;20077;-71
2021/12/05 03:09:45;;;;;;;2.65;1.23;;;5.70;99.90;;;5.47;85.96;99441.09;5188041;28;20096;-71
2021/12/05 03:12:19;;;;;;;2.78;1.10;;;5.70;99.90;;;5.46;86.35;99442.78;5187652;28;20052;-70
2021/12/05 03:15:00;;;;;;;3.03;1.10;;;5.70;99.90;;;5.47;85.96;99441.97;5187494;28;20145;-71
2021/12/05 03:17:32;;;;;;;;;;;5.70;99.90;;;5.55;85.42;99437.94;5188331;28;20060;-70
2021/12/05 03:20:07;;;;;;;3.33;0.73;;;5.70;99.90;;;5.55;85.10;99434.50;5187936;28;19927;-71
2021/12/05 03:22:40;;;;;;;7.55;1.20;;;5.70;99.90;;;5.54;84.90;99436.19;5187831;28;20479;-71
2021/12/05 03:25:14;;;;;;;3.80;0.88;;;5.70;99.90;;;5.63;84.31;99427.84;5188703;28;20403;-70
2021/12/05 03:27:46;;;;;;;4.95;0.90;;;5.70;99.90;;;5.59;83.34;99431.16;5187333;28;20054;-70
2021/12/05 03:30:24;;;;;;;4.90;1.30;;;5.70;99.90;;;5.53;82.90;99437.00;5187802;28;20073;-71
2021/12/05 03:32:57;;;;;;;9.60;1.17;;;5.70;99.90;;;5.42;83.73;99422.88;5186125;28;20050;-71
2021/12/05 03:35:31;;;;;;;5.47;1.55;;;5.70;99.90;;;5.37;83.32;99429.56;5187097;28;20046;-70
2021/12/05 03:38:04;;;;;;;5.53;1.60;;;5.60;99.90;;;5.28;83.25;99429.25;5187200;28;20426;-70
2021/12/05 03:40:39;;;;;;;4.38;1.33;;;5.60;99.90;;;5.20;83.22;99429.00;5187520;28;20054;-71
2021/12/05 03:43:15;;;;;;;4.75;1.77;;;5.50;99.90;;;5.17;83.23;99432.34;5187613;28;20053;-71
2021/12/05 03:45:53;;;;;;;4.55;1.30;;;5.50;99.90;;;5.13;83.32;99433.06;5187960;28;20053;-70
2021/12/05 03:48:31;;;;;;;3.40;1.50;;;5.40;99.90;;;5.11;83.57;99439.88;5186872;28;20396;-71
2021/12/05 03:51:05;;;;;;;6.43;1.20;;;5.40;99.90;;;5.09;83.72;99432.94;5187177;28;20141;-70
2021/12/05 03:53:38;;;;;;;4.30;1.40;;;5.40;99.90;;;5.10;83.11;99432.97;5187244;28;20046;-71
2021/12/05 03:56:12;;;;;;;7.22;1.13;;;5.40;99.90;;;5.12;82.90;99436.47;5186719;28;20046;-71
2021/12/05 03:58:45;;;;;;;3.63;1.10;;;5.40;99.90;;;5.09;83.03;99438.97;5186968;28;20049;-70
2021/12/05 04:01:19;;;;;;;7.72;1.42;;;5.40;99.90;;;5.10;82.76;99438.13;5186836;28;20053;-70
2021/12/05 04:03:53;;;;;;;6.70;1.10;;;5.30;99.90;;;5.08;82.81;99442.34;5188272;28;20054;-71
2021/12/05 04:06:28;;;;;;;2.95;1.25;;;5.30;99.90;;;5.09;82.86;99433.81;5186791;28;20141;-70
2021/12/05 04:09:03;;;;;;;2.38;0.95;;;5.30;99.90;;;5.10;82.81;99445.00;5186916;28;20045;-70
2021/12/05 04:11:44;;;;;;;4.70;1.35;;;5.30;99.90;;;5.11;82.73;99442.47;5186440;28;20116;-71
2021/12/05 04:14:17;;;;;;;2.42;0.73;;;5.30;99.90;;;5.10;82.29;99451.06;5186510;28;20510;-71
2021/12/05 04:16:49;;;;;;;2.70;1.27;;;5.30;99.90;;;5.12;82.13;99448.53;5186658;28;20104;-70
2021/12/05 04:19:23;;;;;;;5.40;1.13;;;5.30;99.90;;;5.12;82.05;99433.03;5186596;28;20054;-70
2021/12/05 04:21:55;;;;;;;4.28;1.00;;;5.40;99.90;;;5.12;81.52;99439.06;5187906;28;20133;-69
2021/12/05 04:24:28;;;;;;;4.00;1.30;;;5.30;99.90;;;5.07;81.78;99429.38;5186490;28;20136;-71
2021/12/05 04:27:02;;;;;;;4.00;1.00;;;5.30;99.90;;;5.05;81.69;99426.75;5186481;28;20046;-70
2021/12/05 04:29:36;;;;;;;6.43;1.55;;;5.30;99.90;;;4.97;81.99;99422.16;5186977;28;20138;-70
2021/12/05 04:32:09;;;;;;;7.00;1.40;;;5.30;99.90;;;4.90;82.20;99415.91;5186254;28;20085;-72
2021/12/05 04:34:42;;;;;;;6.18;1.08;;;5.20;99.90;;;4.89;82.17;99419.31;5185908;28;20053;-70
2021/12/05 04:37:14;;;;;;;11.73;1.45;;;5.20;99.90;;;4.82;82.29;99419.91;5210855;23;20038;-86
2021/12/05 04:39:46;;;;;;;6.63;1.63;;;5.10;99.90;;;4.84;82.17;99423.44;5205397;28;20129;-86
2021/12/05 04:42:19;;;;;;;3.05;1.00;;;5.10;99.90;;;4.78;82.47;99418.03;5229946;28;20057;-85
2021/12/05 04:44:52;;;;;;;4.57;1.15;;;5.10;99.90;;;4.71;82.46;99413.50;5235442;28;20483;-85
2021/12/05 04:47:24;;;;;;;13.55;1.20;;;5.10;99.90;;;4.72;82.95;99410.09;5233803;22;20045;-77
2021/12/05 04:49:56;;;;;;;3.67;1.10;;;5.00;99.90;;;4.70;83.16;99411.75;5207459;28;20053;-77
2021/12/05 04:52:28;;;;;;;13.10;1.40;;;5.00;99.90;;;4.65;83.34;99411.56;5207842;28;20045;-75
2021/12/05 04:55:01;;;;;;;2.95;1.30;;;4.90;99.90;;;4.62;83.48;99420.06;5207674;28;20049;-75
2021/12/05 04:57:34;;;;;;;5.55;1.15;;;4.90;99.90;;;4.59;83.98;99414.78;5207582;28;20045;-73
2021/12/05 05:00:12;;;;;;;6.25;1.17;;;4.90;99.90;;;4.58;83.82;99412.16;5206741;28;20075;-75
2021/12/05 05:02:44;;;;;;;2.80;1.05;;;4.90;99.90;;;4.55;83.85;99410.34;5206640;28;20068;-74
2021/12/05 05:05:16;;;;;;;4.15;1.00;;;4.90;99.90;;;4.54;84.05;99406.00;5205529;28;20053;-74
2021/12/05 05:07:49;;;;;;;5.30;1.20;;;4.80;99.90;;;4.53;83.87;99401.66;5206468;28;20490;-74
2021/12/05 05:10:25;;;;;;;5.32;1.25;;;4.80;99.90;;;4.49;84.64;99411.81;5206379;28;20494;-72
2021/12/05 05:12:59;;;;;;;2.60;0.90;;;4.80;99.90;;;4.48;84.54;99404.91;5206494;28;20508;-77
2021/12/05 05:15:31;;;;;;;4.28;1.00;;;4.80;99.90;;;4.45;84.21;99403.09;5206060;28;20051;-77
2021/12/05 05:18:05;;;;;;;4.85;1.30;;;4.80;99.90;;;4.40;83.89;99407.19;5206314;28;20118;-75
2021/12/05 05:20:41;;;;;;;5.70;0.80;;;4.70;99.90;;;4.43;84.05;99404.72;5206165;28;20144;-74
2021/12/05 05:23:37;;;;;;;4.85;1.50;;;4.70;99.90;;;4.41;83.88;99397.75;5205557;28;20096;-75
2021/12/05 05:40:36;;;;;;;5.72;1.38;;;4.60;99.90;;;4.18;84.22;99396.91;5208682;28;20279;-75
2021/12/05 05:43:27;;;;;;;3.33;0.95;;;4.50;99.90;;;4.16;84.19;99408.84;5205584;28;20137;-75
2021/12/05 05:46:07;;;;;;;8.88;1.23;;;4.50;99.90;;;4.14;84.51;99413.97;5205720;28;20053;-74
2021/12/05 05:48:48;;;;;;;2.33;1.00;;;4.50;99.90;;;4.09;84.66;99413.78;5205496;28;20073;-74
2021/12/05 05:51:21;;;;;;;3.92;0.95;;;4.40;99.90;;;4.05;84.42;99424.81;5205639;28;20143;-74
2021/12/05 05:53:53;;;;;;;3.15;1.08;;;4.40;99.90;;;4.06;84.98;99425.69;5205239;28;20054;-76
2021/12/05 05:56:28;;;;;;;2.42;1.35;;;4.40;99.90;;;4.01;85.13;99430.66;5205972;28;20239;-75
2021/12/05 05:59:05;;;;;;;6.13;1.23;;;4.40;99.90;;;3.96;85.23;99437.31;5206463;28;20060;-72
2021/12/05 06:02:00;;;;;;;1.55;0.93;;;4.40;99.90;;;3.97;84.94;99439.06;5205964;28;20580;-76
2021/12/05 06:04:32;;;;;;;2.20;0.90;;;4.30;99.90;;;3.93;85.43;99437.22;5205668;28;20757;-75
2021/12/05 06:07:04;;;;;;;7.50;1.13;;;4.30;99.90;;;3.92;85.57;99435.47;5205561;28;20052;-77
2021/12/05 06:09:37;;;;;;;6.45;1.80;;;4.30;99.90;;;3.98;85.73;99442.56;5205280;28;20417;-73
2021/12/05 06:12:10;;;;;;;4.78;1.02;;;4.30;99.90;;;4.04;85.72;99448.84;5205506;28;20056;-73
2021/12/05 06:14:42;;;;;;;2.42;0.93;;;4.30;99.90;;;4.14;85.63;99446.59;5205305;28;20487;-74
2021/12/05 06:17:18;;;;;;;3.58;1.20;;;4.40;99.90;;;4.18;85.50;99446.78;5205327;28;20072;-75
2021/12/05 06:19:51;;;;;;;5.05;1.60;;;4.50;99.90;;;4.29;84.82;99452.34;5207352;28;20091;-75
2021/12/05 06:22:23;;;;;;;2.55;1.20;;;4.50;99.90;;;4.40;85.08;99447.59;5205151;28;20165;-75
2021/12/05 06:24:55;;;;;;;3.30;1.20;;;4.60;99.90;;;4.44;84.75;99450.38;5204940;28;20049;-75
2021/12/05 06:27:27;;;;;;;5.70;1.95;;;4.60;99.90;;;4.45;84.32;99452.13;5204859;28;20049;-76
2021/12/05 06:30:07;;;;;;;9.98;1.30;;;4.70;99.90;;;4.47;84.41;99450.47;5204993;28;20049;-76
2021/12/05 06:38:52;;;;;;;7.22;1.35;;;4.70;99.90;;;4.57;84.53;99462.03;5147548;28;20534;-75
2021/12/05 06:41:35;;;;;;;5.47;1.20;;;4.80;99.90;;;4.56;84.22;99471.47;5205967;28;20057;-75
2021/12/05 06:47:01;;;;;;;2.55;1.10;;;4.80;99.90;;;4.58;84.23;99472.41;5191357;28;20045;-75
2021/12/05 06:49:34;;;;;;;3.92;1.10;;;4.80;99.90;;;4.48;84.38;99462.53;5209096;28;20046;-75
2021/12/05 06:52:08;;;;;;;5.78;1.60;;;4.80;99.90;;;4.45;84.28;99471.88;5209195;28;20401;-75
2021/12/05 06:54:43;;;;;;;3.67;1.45;;;4.80;99.90;;;4.40;84.81;99489.75;5208624;28;20061;-76
2021/12/05 06:57:15;;;;;;;6.68;1.65;;;4.70;99.90;;;4.36;84.59;99482.72;5211415;28;20059;-76
2021/12/05 06:59:49;;;;;;;5.20;1.05;;;4.70;99.90;;;4.35;84.82;99488.69;5208857;28;20052;-75
2021/12/05 07:02:23;;;;;;;5.05;1.83;;;4.70;99.90;;;4.32;84.88;99492.06;5208449;28;20233;-74
2021/12/05 07:05:19;;;;;;;4.05;1.00;;;4.60;99.90;;;4.27;84.78;99487.53;5208694;28;20564;-75
2021/12/05 07:07:51;;;;;;;2.65;1.35;;;4.60;99.90;;;4.26;85.30;99483.19;5208839;28;20049;-74
2021/12/05 07:10:24;;;;;;;5.18;1.45;;;4.60;99.90;;;4.23;85.07;99488.22;5208573;28;20060;-74
2021/12/05 07:15:50;;;;;;;4.53;1.13;;;4.50;99.90;;;4.20;85.09;99494.16;5208448;28;20075;-75
2021/12/05 07:21:19;;;;;;;4.95;1.30;;;4.50;99.90;;;4.13;85.81;99491.28;5208605;28;20053;-74
2021/12/05 07:24:00;;;;;;;2.40;1.20;;;4.50;99.90;;;4.07;85.62;99495.38;5208141;28;20050;-74
2021/12/05 07:26:48;;;;;;;3.53;1.13;;;4.40;99.90;;;4.00;85.73;99497.63;5208305;28;20096;-75
2021/12/05 07:40:41;;;;;;;3.58;1.25;;;4.40;99.90;;;4.02;86.41;99504.59;5207961;28;20431;-75
2021/12/05 07:43:17;;;;;;;2.63;1.50;;;4.40;99.90;;;4.07;86.52;99510.84;5207317;28;20103;-74
2021/12/05 07:45:55;;;;;;;4.07;1.38;;;4.40;99.90;;;4.12;86.41;99518.75;5207557;28;20053;-74
2021/12/05 07:48:31;;;;;;;4.03;1.48;;;4.40;99.90;;;4.13;86.18;99510.19;5207345;28;20080;-74
2021/12/05 07:51:10;;;;;;;4.88;1.60;;;4.50;99.90;;;4.15;86.19;99510.25;5207611;28;20053;-74
2021/12/05 07:53:52;;;;;;;3.83;1.20;;;4.50;99.90;;;4.20;86.05;99516.47;5208205;28;20483;-75
2021/12/05 07:56:36;;;;;;;3.40;1.45;;;4.50;99.90;;;4.23;85.88;99516.59;5207656;28;20084;-74
2021/12/05 07:59:22;;;;;;;2.25;1.35;;;4.50;99.90;;;4.24;85.53;99520.97;5207498;28;20267;-73
2021/12/05 08:16:09;;;;;;;3.15;1.13;;;4.90;99.90;;;4.71;83.98;99529.66;5208146;28;20184;-74
2021/12/05 08:18:41;;;;;;;3.65;1.50;;;4.90;99.90;;;4.71;83.83;99535.69;5209662;28;20049;-74
2021/12/05 08:21:14;;;;;;;3.40;1.38;;;4.90;99.90;;;4.72;83.93;99539.16;5208043;28;20136;-77
2021/12/05 08:23:48;;;;;;;3.15;2.05;;;5.00;99.90;;;4.72;83.61;99542.59;5208101;28;20042;-76
2021/12/05 08:26:30;;;;;;;3.95;1.40;;;5.00;99.90;;;5.50;96.62;99544.59;5207326;28;20057;-69
2021/12/05 08:29:09;;;;;;;3.55;1.33;;;5.40;99.90;;;6.83;100.00;99535.97;5206620;28;20482;-68
2021/12/05 08:32:02;;;;;;;2.90;1.23;;;6.80;99.90;;;7.39;88.70;99541.91;5206788;28;20490;-76
2021/12/05 08:34:59;;;;;;;5.13;1.05;;;7.70;99.90;;;7.11;77.57;99543.75;5206795;28;20104;-74
2021/12/05 08:43:44;;;;;;;4.00;1.38;;;6.90;99.90;;;5.99;77.95;99554.91;5195867;28;20041;-74
2021/12/05 09:52:07;;;;;;;3.53;1.67;;;5.80;99.90;;;5.68;82.47;99622.78;5205751;28;20049;-74
2021/12/05 10:03:12;;;;;;;2.97;1.20;;;6.00;99.90;;;5.88;82.24;99620.91;5205137;28;20439;-74
2021/12/05 10:08:48;;;;;;;1.48;1.13;;;6.00;99.90;;;5.97;81.37;99622.13;5204977;28;20184;-74
2021/12/05 10:11:35;;;;;;;3.88;0.95;;;6.10;99.90;;;6.04;81.75;99628.38;5204897;28;20049;-75
2021/12/05 10:14:19;;;;;;;2.00;1.30;;;6.10;99.90;;;6.13;80.94;99628.72;5204250;28;20045;-74
2021/12/05 10:17:10;;;;;;;2.58;1.10;;;6.10;99.90;;;6.14;81.65;99620.13;5204933;28;20498;-75
2021/12/05 10:20:19;;;;;;;3.58;1.30;;;6.20;99.90;;;6.25;80.83;99621.34;5205196;28;20528;-75
2021/12/05 10:34:39;;;;;;;3.42;1.30;;;6.50;99.90;;;6.35;80.25;99622.53;5187105;28;20045;-75
2021/12/05 10:37:17;;;;;;;3.38;1.27;;;6.50;99.90;;;6.40;80.65;99633.94;5203585;23;20054;-81
2021/12/05 10:40:06;;;;;;;1.50;1.05;;;6.50;99.90;;;6.43;80.26;99634.00;5206055;28;20050;-83
2021/12/05 10:42:44;;;;;;;1.50;1.02;;;6.50;99.90;;;6.55;79.46;99638.72;5228141;28;20047;-86
2021/12/05 10:45:33;;;;;;;1.38;1.10;;;6.50;99.90;;;6.61;78.71;99632.84;5230783;28;20068;-82
2021/12/05 10:48:09;;;;;;;2.72;1.27;;;6.60;99.90;;;6.66;78.45;99629.59;5230206;23;20048;-79
2021/12/05 10:50:45;;;;;;;1.98;1.10;;;6.60;99.90;;;6.59;79.09;99627.63;5206777;28;20053;-79
2021/12/05 10:53:43;;;;;;;3.88;1.30;;;6.60;99.90;;;6.66;78.33;99627.00;5206942;28;20065;-79
2021/12/05 10:56:20;;;;;;;2.05;1.00;;;6.70;99.90;;;6.73;78.57;99623.78;5206888;28;20065;-81
2021/12/05 10:58:59;;;;;;;1.80;1.20;;;6.70;99.90;;;6.72;77.51;99624.59;5206207;28;20045;-76
2021/12/05 11:01:36;;;;;;;0.85;0.85;;;6.70;99.90;;;6.68;77.78;99622.75;5206657;28;20053;-77
2021/12/05 11:04:11;;;;;;;2.67;1.13;;;6.70;99.90;;;6.75;78.14;99626.41;5206145;28;20049;-78
2021/12/05 11:06:50;;;;;;;3.75;1.45;;;6.80;99.90;;;6.83;77.90;99624.91;5206063;28;20079;-78
2021/12/05 11:09:26;;;;;;;1.10;0.85;;;6.80;99.90;;;6.87;77.45;99628.50;5206135;28;20075;-80
2021/12/05 11:12:01;;;;;;;1.23;0.82;;;6.90;99.90;;;6.79;76.76;99629.16;5206084;28;20045;-77
2021/12/05 11:14:39;;;;;;;2.88;0.73;;;6.90;99.90;;;6.86;76.31;99627.63;5206514;28;20053;-78
2021/12/05 11:17:13;;;;;;;2.70;0.98;;;6.90;99.90;;;6.90;76.31;99628.56;5206279;28;20132;-78
2021/12/05 11:19:49;;;;;;;5.05;1.10;;;6.90;99.90;;;6.88;76.12;99638.03;5206444;28;20099;-79
2021/12/05 11:22:25;;;;;;;1.50;0.98;;;6.90;99.90;;;6.87;76.22;99637.16;5208098;28;20046;-78
2021/12/05 11:24:59;;;;;;;1.08;0.82;;;6.90;99.90;;;6.92;75.63;99639.88;5209892;28;20056;-79
2021/12/05 11:27:37;;;;;;;1.33;1.05;;;6.90;99.90;;;6.93;76.07;99631.28;5209994;28;20409;-78
2021/12/05 11:30:17;;;;;;;3.15;1.40;;;7.00;99.90;;;7.00;76.37;99630.63;5210042;28;20498;-78
2021/12/05 11:32:53;;;;;;;2.05;1.60;;;7.00;99.90;;;7.08;76.02;99624.84;5209983;28;20045;-78
2021/12/05 11:35:34;;;;;;;3.08;1.42;;;7.00;99.90;;;7.14;76.24;99621.56;5209467;28;20049;-79
2021/12/05 11:38:16;;;;;;;4.60;2.72;;;7.10;99.90;;;7.19;76.19;99625.16;5209530;28;20132;-80
2021/12/05 11:40:58;;;;;;;6.35;4.95;;;7.10;99.90;;;7.28;75.68;99630.59;5209695;28;20123;-78
2021/12/05 11:43:33;;;;;;;5.50;4.15;;;7.20;99.90;;;7.30;75.00;99639.34;5208956;28;20053;-78
2021/12/05 11:46:11;;;;;;;4.28;2.78;;;7.30;99.90;;;7.32;74.81;99627.28;5209743;28;20145;-78
2021/12/05 11:48:48;;;;;;;5.03;2.58;;;7.30;99.90;;;7.32;74.57;99632.47;5209240;28;20056;-78
2021/12/05 11:51:28;;;;;;;3.53;2.97;;;7.30;99.90;;;7.37;74.44;99623.94;5209475;28;20473;-79
2021/12/05 11:54:03;;;;;;;2.92;1.65;;;7.30;99.90;;;7.49;74.78;99624.28;5209640;28;20049;-77
2021/12/05 11:56:45;;;;;;;2.00;1.10;;;7.40;99.90;;;7.59;74.57;99631.50;5209988;28;20069;-79
2021/12/05 11:59:24;;;;;;;2.40;1.08;;;7.50;99.90;;;7.62;74.00;99624.66;5210016;28;20413;-78
2021/12/05 12:02:03;;;;;;;1.42;1.00;;;7.60;99.90;;;7.57;73.53;99628.00;5209469;28;20080;-78
2021/12/05 12:04:47;;;;;;;1.52;0.85;;;7.60;99.90;;;7.58;73.46;99629.75;5208703;28;20064;-78
2021/12/05 12:07:31;;;;;;;1.95;1.40;;;7.60;99.90;;;7.54;73.66;99633.09;5208472;28;20069;-79
2021/12/05 12:10:11;;;;;;;2.17;1.13;;;7.60;99.90;;;7.57;73.40;99633.19;5209803;28;20057;-78
2021/12/05 12:12:47;;;;;;;3.05;1.50;;;7.60;99.90;;;7.55;72.97;99629.66;5209370;28;20079;-79
2021/12/05 12:15:22;;;;;;;2.53;1.17;;;7.60;99.90;;;7.54;72.51;99633.97;5209134;28;20153;-79
2021/12/05 12:18:05;;;;;;;2.88;1.20;;;7.60;99.90;;;7.54;73.27;99633.09;5208916;28;20041;-78
2021/12/05 12:20:40;;;;;;;2.90;1.73;;;7.60;99.90;;;7.54;73.85;99628.78;5210136;28;20399;-80
2021/12/05 12:23:15;;;;;;;3.28;1.35;;;7.60;99.90;;;7.60;73.29;99641.91;5209535;28;20053;-77
2021/12/05 12:25:50;;;;;;;2.53;1.25;;;7.60;99.90;;;7.56;73.28;99637.50;5209312;28;20077;-78
2021/12/05 12:28:23;;;;;;;1.67;1.23;;;7.60;99.90;;;7.60;73.21;99648.81;5208252;28;20053;-78
2021/12/05 12:31:00;;;;;;;1.13;1.02;;;7.60;99.90;;;7.62;73.09;99639.34;5208570;28;20046;-77
2021/12/05 12:33:38;;;;;;;1.55;0.90;;;7.60;99.90;;;7.62;72.97;99641.94;5208164;28;20475;-77
2021/12/05 12:36:11;;;;;;;5.05;1.27;;;7.60;99.90;;;7.61;72.10;99637.59;5208049;28;20069;-78
2021/12/05 12:38:45;;;;;;;1.30;0.80;;;7.60;99.90;;;7.58;71.54;99646.19;5208967;28;20482;-77
2021/12/05 12:41:21;;;;;;;2.30;1.00;;;7.60;99.90;;;7.61;70.98;99647.97;5208176;28;20045;-78
2021/12/05 12:43:56;;;;;;;1.33;0.90;;;7.60;99.90;;;7.70;70.06;99653.44;5208263;28;20482;-80
2021/12/05 12:46:36;;;;;;;1.90;0.82;;;7.60;99.90;;;7.72;69.47;99651.75;5208499;28;20129;-78
2021/12/05 12:49:29;;;;;;;1.10;1.00;;;7.60;99.90;;;7.75;68.95;99659.59;5208071;28;20391;-77
2021/12/05 12:52:06;;;;;;;1.52;0.95;;;7.70;99.90;;;7.74;68.95;99652.66;5208607;28;20045;-78
2021/12/05 12:54:43;;;;;;;1.80;0.88;;;7.70;99.90;;;7.74;68.63;99647.47;5208206;28;20111;-79
2021/12/05 12:57:20;;;;;;;1.73;1.00;;;7.70;99.90;;;7.75;68.64;99651.81;5208144;28;20068;-79
2021/12/05 13:00:02;;;;;;;0.93;0.88;;;7.70;99.90;;;7.81;68.31;99659.78;5208216;28;20104;-78
2021/12/05 13:02:56;;;;;;;0.65;0.65;;;7.70;99.90;;;7.79;67.51;99653.69;5208500;28;20073;-79
2021/12/05 13:05:53;;;;;;;0.85;0.75;;;7.70;99.90;;;7.78;66.77;99654.53;5207709;28;20045;-79
2021/12/05 13:11:23;;;;;;;3.42;1.70;;;7.70;99.90;;;7.64;67.05;99660.16;5207711;28;20098;-77
2021/12/05 13:14:04;;;;;;;2.05;1.25;;;7.70;99.90;;;7.58;67.68;99676.44;5207456;28;20059;-77
2021/12/05 13:16:39;;;;;;;1.23;1.13;;;7.70;99.90;;;7.55;67.77;99668.53;5207851;28;20057;-77
2021/12/05 13:19:18;;;;;;;1.50;1.00;;;7.60;99.90;;;7.52;68.44;99682.31;5207411;28;20049;-78
2021/12/05 13:21:56;;;;;;;1.45;1.02;;;7.60;99.90;;;7.46;68.45;99676.06;5207659;28;20045;-78
2021/12/05 13:24:34;;;;;;;2.28;0.73;;;7.60;99.90;;;7.44;69.14;99677.75;5207123;28;20060;-78
2021/12/05 13:27:09;;;;;;;4.65;1.20;;;7.50;99.90;;;7.38;68.87;99672.38;5207731;28;20057;-79
2021/12/05 13:29:51;;;;;;;2.00;0.80;;;7.50;99.90;;;7.32;69.21;99681.72;5207467;28;20059;-77
2021/12/05 13:32:29;;;;;;;1.80;1.20;;;7.50;99.90;;;7.35;68.82;99676.63;5207446;28;20129;-80
2021/12/05 13:35:03;;;;;;;1.45;0.85;;;7.50;99.90;;;7.39;69.47;99674.13;5206684;28;20136;-78
2021/12/05 13:37:49;;;;;;;1.08;0.75;;;7.50;99.90;;;7.41;69.18;99680.22;5206532;28;20045;-78
2021/12/05 13:40:23;;;;;;;1.30;0.90;;;7.50;99.90;;;7.51;70.15;99682.28;5207437;28;20046;-78
2021/12/05 13:43:03;;;;;;;1.20;0.90;;;7.60;99.90;;;7.49;70.03;99684.78;5207247;28;20108;-77
2021/12/05 13:45:42;;;;;;;3.00;1.50;;;7.60;99.90;;;7.51;69.89;99688.34;5206497;28;20136;-77
2021/12/05 13:48:29;;;;;;;2.55;1.40;;;7.60;99.90;;;7.54;69.20;99692.72;5206696;28;20410;-78
2021/12/05 13:51:04;;;;;;;2.10;0.90;;;7.60;99.90;;;7.57;69.18;99690.25;5207105;28;20056;-79
2021/12/05 13:53:51;;;;;;;2.25;1.00;;;7.60;99.90;;;7.58;69.21;99689.41;5208173;28;20107;-81
2021/12/05 13:56:27;;;;;;;1.45;0.95;;;7.60;99.90;;;7.57;69.21;99696.31;5210861;28;20069;-80
2021/12/05 13:59:07;;;;;;;2.05;0.95;;;7.70;99.90;;;7.56;68.92;99699.72;5211534;28;20049;-80
2021/12/05 14:01:47;;;;;;;1.13;0.80;;;7.60;99.90;;;7.53;68.34;99709.13;5210269;28;20122;-81
2021/12/05 14:04:28;;;;;;;1.27;1.17;;;7.60;99.90;;;7.54;68.54;99709.16;5207263;28;20128;-77
2021/12/05 14:07:04;;;;;;;1.48;0.65;;;7.60;99.90;;;7.54;68.41;99719.53;5206154;28;20085;-77
2021/12/05 14:09:39;;;;;;;;;;;7.60;99.90;;;7.46;67.13;99714.97;5206811;28;20057;-77
2021/12/05 14:12:17;;;;;;;1.75;1.17;;;7.60;99.90;;;7.41;67.49;99720.00;5216048;28;19984;-80
2021/12/05 14:14:52;;;;;;;1.67;1.05;;;7.60;99.90;;;7.40;67.68;99727.75;5220098;28;20111;-80
2021/12/05 14:17:29;;;;;;;0.95;0.80;;;7.50;99.90;;;7.35;67.52;99735.38;5221648;28;20050;-80
2021/12/05 14:20:05;;;;;;;0.82;0.82;;;7.50;99.90;;;7.35;67.87;99746.63;5220870;28;20145;-79
2021/12/05 14:22:39;;;;;;;1.55;0.93;;;7.50;99.90;;;7.32;67.58;99751.72;5220766;28;20115;-80
2021/12/05 14:25:17;;;;;;;1.50;0.90;;;7.50;99.90;;;7.24;67.76;99758.38;5218725;28;20076;-80
2021/12/05 14:27:52;;;;;;;2.42;0.98;;;7.40;99.90;;;7.19;67.62;99749.56;5218994;28;20083;-79
2021/12/05 14:30:30;;;;;;;1.90;1.15;;;7.40;99.90;;;7.26;67.29;99753.25;5218997;28;20073;-81
2021/12/05 14:33:02;;;;;;;11.50;3.97;;;7.40;99.90;;;7.92;84.71;99755.22;5207646;28;20135;-72
2021/12/05 14:35:38;;;;;;;8.85;3.00;;;7.80;99.90;;;8.53;79.49;99756.94;5204737;28;20080;-72
2021/12/05 14:38:10;;;;;;;5.63;2.33;;;8.50;99.90;;;9.06;75.89;99762.59;5204957;28;20060;-72
2021/12/05 14:40:44;;;;;;;2.75;2.00;;;9.20;99.90;;;9.40;68.67;99762.59;5214087;28;20045;-79
2021/12/05 14:43:20;;;;;;;2.75;0.82;;;9.70;99.90;;;9.17;64.11;99771.56;5220895;28;20133;-80
2021/12/05 14:45:53;;;;;;;2.72;1.52;;;9.60;97.50;;;8.80;64.09;99768.06;5220419;28;20045;-79
2021/12/05 14:48:25;;;;;;;1.50;1.20;;;9.30;97.50;;;8.53;64.71;99777.72;5219919;28;20041;-79
2021/12/05 14:50:59;;;;;;;1.75;0.98;;;9.00;98.00;;;8.29;65.19;99778.78;5219442;28;20057;-79
2021/12/05 14:53:31;;;;;;;1.98;1.05;;;8.80;98.70;;;8.09;65.54;99786.03;5222539;28;20049;-79
2021/12/05 14:56:06;;;;;;;3.25;1.50;;;8.50;98.80;;;7.97;65.93;99785.66;5222665;28;20050;-80
2021/12/05 14:58:41;;;;;;;3.65;1.40;;;8.30;99.30;;;7.83;65.87;99787.84;5224060;28;20057;-78
2021/12/05 15:01:13;;;;;;;1.98;1.23;;;8.10;99.60;;;7.75;66.31;99789.31;5223951;28;20065;-80
2021/12/05 15:03:52;;;;;;;2.85;1.10;;;8.00;99.90;;;7.67;66.89;99798.59;5221675;28;20077;-77
2021/12/05 15:06:35;;;;;;;3.05;1.63;;;7.90;99.90;;;7.69;67.02;99789.13;5215278;28;20052;-78
2021/12/05 15:09:19;;;;;;;3.05;1.30;;;7.90;99.90;;;7.82;69.86;99796.47;5203198;28;20467;-73
2021/12/05 15:11:59;;;;;;;3.55;1.48;;;7.90;99.90;;;8.00;68.69;99803.91;5203439;28;20073;-81
2021/12/05 15:14:33;;;;;;;1.85;1.40;;;8.10;99.90;;;7.92;67.36;99807.13;5203099;28;20079;-80